Terminal Aerodrome Forecast
Issued by NWS

Home | Current Version | Previous Version | Text Only | Print | Product List | Glossary On
Versions: 1 2 3 4 5 6 7 8 9 10 11 12 13 14 15 16 17 18 19 20 21 22 23 24 25
569
FTUS46 KLOX 210559
TAFOXR
TAF
KOXR 210559Z 2106/2206 VRB03KT P6SM OVC015
     FM210800 VRB03KT 6SM BR SCT010 OVC020
     FM211600 25004KT P6SM BKN025
     FM212000 25010KT P6SM FEW030
     FM220300 28008KT P6SM SCT015=

USA.gov is the U.S. government's official web portal to all federal, state and local government web resources and services.